TimeCST,TemperatureF,Dew PointF,Humidity,Sea Level PressureIn,VisibilityMPH,Wind Direction,Wind SpeedMPH,Gust SpeedMPH,PrecipitationIn,Events,Conditions,WindDirDegrees,DateUTC
12:53 AM,-2.0,-9.0,72,30.47,10.0,West,10.4,-,N/A,,Clear,280,2013-02-01 06:53:00
1:53 AM,-2.0,-9.0,72,30.48,10.0,WSW,8.1,-,N/A,,Clear,250,2013-02-01 07:53:00
2:53 AM,-2.9,-9.9,72,30.46,10.0,WNW,9.2,-,N/A,,Clear,290,2013-02-01 08:53:00
3:53 AM,-2.9,-9.9,72,30.47,10.0,West,8.1,-,N/A,,Clear,260,2013-02-01 09:53:00
4:53 AM,-4.0,-11.0,72,30.46,10.0,WNW,6.9,-,N/A,,Clear,300,2013-02-01 10:53:00
5:53 AM,-5.1,-9.9,80,30.45,10.0,West,4.6,-,N/A,,Clear,270,2013-02-01 11:53:00
6:53 AM,-5.1,-11.0,76,30.46,10.0,West,4.6,-,N/A,,Clear,260,2013-02-01 12:53:00
7:53 AM,-2.0,-9.0,72,30.45,10.0,NNW,5.8,-,N/A,,Mostly Cloudy,330,2013-02-01 13:53:00
8:53 AM,-0.0,-9.9,63,30.48,10.0,West,5.8,-,N/A,,Overcast,280,2013-02-01 14:53:00
9:53 AM,1.9,-7.1,66,30.46,10.0,SSW,5.8,-,N/A,,Scattered Clouds,200,2013-02-01 15:53:00
10:53 AM,3.9,-5.1,66,30.46,10.0,South,9.2,-,N/A,,Overcast,190,2013-02-01 16:53:00
11:53 AM,7.0,-2.9,64,30.41,10.0,South,8.1,-,N/A,,Overcast,170,2013-02-01 17:53:00
12:53 PM,10.9,-0.0,61,30.38,10.0,South,9.2,-,N/A,,Partly Cloudy,180,2013-02-01 18:53:00
1:53 PM,12.9,1.9,62,30.32,10.0,South,12.7,-,N/A,,Overcast,180,2013-02-01 19:53:00
2:53 PM,16.0,3.9,59,30.28,10.0,South,13.8,-,N/A,,Overcast,180,2013-02-01 20:53:00
3:53 PM,17.1,6.1,62,30.26,10.0,South,16.1,-,N/A,,Overcast,190,2013-02-01 21:53:00
4:53 PM,18.0,8.1,65,30.23,10.0,South,13.8,-,N/A,,Overcast,190,2013-02-01 22:53:00
5:53 PM,19.9,9.0,62,30.21,10.0,SSW,13.8,-,N/A,,Overcast,200,2013-02-01 23:53:00
6:53 PM,19.9,10.9,68,30.19,10.0,SSW,16.1,-,N/A,,Overcast,200,2013-02-02 00:53:00
7:53 PM,21.0,12.0,68,30.20,10.0,SSW,12.7,-,N/A,,Overcast,210,2013-02-02 01:53:00
8:53 PM,21.9,12.9,68,30.18,10.0,SSW,16.1,-,N/A,,Overcast,200,2013-02-02 02:53:00
9:53 PM,21.9,12.9,68,30.16,10.0,SSW,18.4,-,N/A,,Overcast,200,2013-02-02 03:53:00
10:53 PM,23.0,12.9,65,30.15,10.0,SSW,17.3,24.2,N/A,,Overcast,210,2013-02-02 04:53:00
11:53 PM,24.1,14.0,65,30.13,10.0,SSW,13.8,-,N/A,,Overcast,210,2013-02-02 05:53:00